sensor_id;sensor_type;location;lat;lon;timestamp;P1;durP1;ratioP1;P2;durP2;ratioP2
14681;SDS011;7429;52.498;13.480;2023-07-29T00:01:49;11.23;;;10.15;;
14681;SDS011;7429;52.498;13.480;2023-07-29T00:04:53;10.98;;;9.98;;
14681;SDS011;7429;52.498;13.480;2023-07-29T00:07:57;13.63;;;12.05;;
14681;SDS011;7429;52.498;13.480;2023-07-29T00:11:00;12.05;;;10.88;;
14681;SDS011;7429;52.498;13.480;2023-07-29T00:14:03;11.93;;;10.93;;
14681;SDS011;7429;52.498;13.480;2023-07-29T00:17:06;12.18;;;10.98;;
14681;SDS011;7429;52.498;13.480;2023-07-29T00:20:09;12.60;;;10.27;;
14681;SDS011;7429;52.498;13.480;2023-07-29T00:23:14;12.10;;;10.82;;
14681;SDS011;7429;52.498;13.480;2023-07-29T00:26:17;15.15;;;13.70;;
14681;SDS011;7429;52.498;13.480;2023-07-29T00:29:20;12.32;;;11.32;;
14681;SDS011;7429;52.498;13.480;2023-07-29T00:32:26;11.73;;;10.90;;
14681;SDS011;7429;52.498;13.480;2023-07-29T00:35:32;11.98;;;10.73;;
14681;SDS011;7429;52.498;13.480;2023-07-29T00:38:36;12.35;;;10.75;;
14681;SDS011;7429;52.498;13.480;2023-07-29T00:41:39;11.40;;;10.48;;
14681;SDS011;7429;52.498;13.480;2023-07-29T00:44:43;21.02;;;19.23;;
14681;SDS011;7429;52.498;13.480;2023-07-29T00:47:46;15.23;;;13.93;;
14681;SDS011;7429;52.498;13.480;2023-07-29T00:50:51;17.92;;;16.70;;
14681;SDS011;7429;52.498;13.480;2023-07-29T00:53:55;16.05;;;14.77;;
14681;SDS011;7429;52.498;13.480;2023-07-29T00:56:59;16.85;;;15.63;;
14681;SDS011;7429;52.498;13.480;2023-07-29T01:00:02;16.92;;;15.70;;
14681;SDS011;7429;52.498;13.480;2023-07-29T01:03:07;16.30;;;15.05;;
14681;SDS011;7429;52.498;13.480;2023-07-29T01:06:12;18.83;;;15.98;;
14681;SDS011;7429;52.498;13.480;2023-07-29T01:09:26;13.75;;;12.63;;
14681;SDS011;7429;52.498;13.480;2023-07-29T01:12:40;11.30;;;10.43;;
14681;SDS011;7429;52.498;13.480;2023-07-29T01:15:52;15.13;;;13.85;;
14681;SDS011;7429;52.498;13.480;2023-07-29T01:19:03;14.15;;;13.15;;
14681;SDS011;7429;52.498;13.480;2023-07-29T01:22:10;16.50;;;13.77;;
14681;SDS011;7429;52.498;13.480;2023-07-29T01:25:15;22.65;;;20.55;;
14681;SDS011;7429;52.498;13.480;2023-07-29T01:28:18;12.60;;;11.50;;
14681;SDS011;7429;52.498;13.480;2023-07-29T01:31:23;14.02;;;12.93;;
14681;SDS011;7429;52.498;13.480;2023-07-29T01:34:35;14.20;;;13.13;;
14681;SDS011;7429;52.498;13.480;2023-07-29T01:37:47;11.38;;;10.48;;
14681;SDS011;7429;52.498;13.480;2023-07-29T01:40:55;12.88;;;11.85;;
14681;SDS011;7429;52.498;13.480;2023-07-29T01:43:59;14.75;;;13.45;;
14681;SDS011;7429;52.498;13.480;2023-07-29T01:47:04;12.70;;;11.80;;
14681;SDS011;7429;52.498;13.480;2023-07-29T01:50:09;16.67;;;15.23;;
14681;SDS011;7429;52.498;13.480;2023-07-29T01:53:13;12.95;;;11.80;;
14681;SDS011;7429;52.498;13.480;2023-07-29T01:56:17;13.00;;;11.95;;
14681;SDS011;7429;52.498;13.480;2023-07-29T01:59:27;13.27;;;11.68;;
14681;SDS011;7429;52.498;13.480;2023-07-29T02:02:31;12.38;;;11.27;;
14681;SDS011;7429;52.498;13.480;2023-07-29T02:05:34;11.30;;;10.18;;
14681;SDS011;7429;52.498;13.480;2023-07-29T02:08:37;13.48;;;12.38;;
14681;SDS011;7429;52.498;13.480;2023-07-29T02:11:43;14.10;;;12.30;;
14681;SDS011;7429;52.498;13.480;2023-07-29T02:14:46;14.10;;;13.10;;
14681;SDS011;7429;52.498;13.480;2023-07-29T02:17:50;16.02;;;14.65;;
14681;SDS011;7429;52.498;13.480;2023-07-29T02:20:53;14.60;;;13.27;;
14681;SDS011;7429;52.498;13.480;2023-07-29T02:23:57;15.88;;;14.35;;
14681;SDS011;7429;52.498;13.480;2023-07-29T02:27:01;13.07;;;12.07;;
14681;SDS011;7429;52.498;13.480;2023-07-29T02:30:05;14.25;;;13.18;;
14681;SDS011;7429;52.498;13.480;2023-07-29T02:33:11;15.70;;;14.38;;
14681;SDS011;7429;52.498;13.480;2023-07-29T02:36:14;21.15;;;19.40;;
14681;SDS011;7429;52.498;13.480;2023-07-29T02:39:18;16.70;;;15.48;;
14681;SDS011;7429;52.498;13.480;2023-07-29T02:42:22;15.60;;;14.35;;
14681;SDS011;7429;52.498;13.480;2023-07-29T02:45:25;15.43;;;14.18;;
14681;SDS011;7429;52.498;13.480;2023-07-29T02:48:29;18.52;;;16.90;;
14681;SDS011;7429;52.498;13.480;2023-07-29T02:51:32;19.75;;;18.35;;
14681;SDS011;7429;52.498;13.480;2023-07-29T02:54:36;21.00;;;19.73;;
14681;SDS011;7429;52.498;13.480;2023-07-29T02:57:41;13.70;;;12.40;;
14681;SDS011;7429;52.498;13.480;2023-07-29T03:00:44;13.75;;;12.13;;
14681;SDS011;7429;52.498;13.480;2023-07-29T03:03:49;22.45;;;13.65;;
14681;SDS011;7429;52.498;13.480;2023-07-29T03:06:52;12.38;;;11.18;;
14681;SDS011;7429;52.498;13.480;2023-07-29T03:09:55;11.75;;;10.75;;
14681;SDS011;7429;52.498;13.480;2023-07-29T03:13:03;13.38;;;12.02;;
14681;SDS011;7429;52.498;13.480;2023-07-29T03:16:08;14.13;;;12.80;;
14681;SDS011;7429;52.498;13.480;2023-07-29T03:19:14;10.70;;;9.70;;
14681;SDS011;7429;52.498;13.480;2023-07-29T03:22:18;12.90;;;11.70;;
14681;SDS011;7429;52.498;13.480;2023-07-29T03:25:21;13.50;;;12.20;;
14681;SDS011;7429;52.498;13.480;2023-07-29T03:28:27;11.82;;;10.93;;
14681;SDS011;7429;52.498;13.480;2023-07-29T03:31:31;12.73;;;11.43;;
14681;SDS011;7429;52.498;13.480;2023-07-29T03:34:34;10.75;;;9.73;;
14681;SDS011;7429;52.498;13.480;2023-07-29T03:37:38;12.18;;;11.07;;
14681;SDS011;7429;52.498;13.480;2023-07-29T03:40:42;11.60;;;10.23;;
14681;SDS011;7429;52.498;13.480;2023-07-29T03:43:46;11.23;;;10.23;;
14681;SDS011;7429;52.498;13.480;2023-07-29T03:46:50;14.63;;;12.60;;
14681;SDS011;7429;52.498;13.480;2023-07-29T03:49:53;15.82;;;14.30;;
14681;SDS011;7429;52.498;13.480;2023-07-29T03:52:57;14.52;;;13.00;;
14681;SDS011;7429;52.498;13.480;2023-07-29T03:56:00;13.02;;;11.68;;
14681;SDS011;7429;52.498;13.480;2023-07-29T03:59:05;16.35;;;12.90;;
14681;SDS011;7429;52.498;13.480;2023-07-29T04:02:08;12.95;;;11.30;;
14681;SDS011;7429;52.498;13.480;2023-07-29T04:05:11;13.15;;;11.82;;
14681;SDS011;7429;52.498;13.480;2023-07-29T04:08:14;12.43;;;10.77;;
14681;SDS011;7429;52.498;13.480;2023-07-29T04:11:18;11.80;;;10.70;;
14681;SDS011;7429;52.498;13.480;2023-07-29T04:14:22;14.30;;;12.90;;
14681;SDS011;7429;52.498;13.480;2023-07-29T04:17:25;13.05;;;11.80;;
14681;SDS011;7429;52.498;13.480;2023-07-29T04:20:29;12.55;;;11.45;;
14681;SDS011;7429;52.498;13.480;2023-07-29T04:23:32;13.73;;;12.43;;
14681;SDS011;7429;52.498;13.480;2023-07-29T04:26:36;16.10;;;14.38;;
14681;SDS011;7429;52.498;13.480;2023-07-29T04:29:41;14.32;;;12.82;;
14681;SDS011;7429;52.498;13.480;2023-07-29T04:32:44;12.80;;;11.70;;
14681;SDS011;7429;52.498;13.480;2023-07-29T04:35:50;15.05;;;12.68;;
14681;SDS011;7429;52.498;13.480;2023-07-29T04:38:54;13.98;;;12.55;;
14681;SDS011;7429;52.498;13.480;2023-07-29T04:41:57;18.00;;;16.30;;
14681;SDS011;7429;52.498;13.480;2023-07-29T04:45:01;16.45;;;15.15;;
14681;SDS011;7429;52.498;13.480;2023-07-29T04:48:06;14.00;;;12.70;;
14681;SDS011;7429;52.498;13.480;2023-07-29T04:51:10;14.98;;;13.75;;
14681;SDS011;7429;52.498;13.480;2023-07-29T04:54:14;13.93;;;10.65;;
14681;SDS011;7429;52.498;13.480;2023-07-29T04:57:17;12.50;;;11.40;;
14681;SDS011;7429;52.498;13.480;2023-07-29T05:00:22;12.80;;;11.60;;
14681;SDS011;7429;52.498;13.480;2023-07-29T05:03:25;13.98;;;12.18;;
14681;SDS011;7429;52.498;13.480;2023-07-29T05:06:28;12.77;;;11.57;;
14681;SDS011;7429;52.498;13.480;2023-07-29T05:09:31;12.88;;;11.57;;
14681;SDS011;7429;52.498;13.480;2023-07-29T05:12:35;14.60;;;13.43;;
14681;SDS011;7429;52.498;13.480;2023-07-29T05:15:39;16.38;;;15.07;;
14681;SDS011;7429;52.498;13.480;2023-07-29T05:18:43;12.75;;;11.70;;
14681;SDS011;7429;52.498;13.480;2023-07-29T05:21:46;14.27;;;13.07;;
14681;SDS011;7429;52.498;13.480;2023-07-29T05:24:49;15.20;;;13.88;;
14681;SDS011;7429;52.498;13.480;2023-07-29T05:27:52;12.82;;;11.50;;
14681;SDS011;7429;52.498;13.480;2023-07-29T05:30:59;13.73;;;12.43;;
14681;SDS011;7429;52.498;13.480;2023-07-29T05:34:03;13.15;;;12.05;;
14681;SDS011;7429;52.498;13.480;2023-07-29T05:37:06;14.32;;;12.77;;
14681;SDS011;7429;52.498;13.480;2023-07-29T05:40:09;13.98;;;12.88;;
14681;SDS011;7429;52.498;13.480;2023-07-29T05:43:14;11.82;;;10.60;;
14681;SDS011;7429;52.498;13.480;2023-07-29T05:46:18;14.88;;;10.18;;
14681;SDS011;7429;52.498;13.480;2023-07-29T05:49:21;12.57;;;11.40;;
14681;SDS011;7429;52.498;13.480;2023-07-29T05:52:25;14.18;;;13.07;;
14681;SDS011;7429;52.498;13.480;2023-07-29T05:55:28;12.05;;;11.05;;
14681;SDS011;7429;52.498;13.480;2023-07-29T05:58:31;12.40;;;11.40;;
14681;SDS011;7429;52.498;13.480;2023-07-29T06:01:35;12.30;;;11.13;;
14681;SDS011;7429;52.498;13.480;2023-07-29T06:04:38;11.15;;;9.70;;
14681;SDS011;7429;52.498;13.480;2023-07-29T06:07:42;12.23;;;11.32;;
14681;SDS011;7429;52.498;13.480;2023-07-29T06:10:46;11.05;;;10.18;;
14681;SDS011;7429;52.498;13.480;2023-07-29T06:13:50;12.00;;;11.10;;
14681;SDS011;7429;52.498;13.480;2023-07-29T06:16:55;11.35;;;10.30;;
14681;SDS011;7429;52.498;13.480;2023-07-29T06:19:59;14.73;;;13.43;;
14681;SDS011;7429;52.498;13.480;2023-07-29T06:23:03;12.95;;;12.05;;
14681;SDS011;7429;52.498;13.480;2023-07-29T06:26:06;13.02;;;12.13;;
14681;SDS011;7429;52.498;13.480;2023-07-29T06:29:09;18.00;;;16.80;;
14681;SDS011;7429;52.498;13.480;2023-07-29T06:32:13;12.68;;;11.77;;
14681;SDS011;7429;52.498;13.480;2023-07-29T06:35:16;10.20;;;9.40;;
14681;SDS011;7429;52.498;13.480;2023-07-29T06:38:19;12.85;;;11.82;;
14681;SDS011;7429;52.498;13.480;2023-07-29T06:41:23;8.65;;;7.93;;
14681;SDS011;7429;52.498;13.480;2023-07-29T06:44:26;13.98;;;12.88;;
14681;SDS011;7429;52.498;13.480;2023-07-29T06:47:31;11.88;;;11.07;;
14681;SDS011;7429;52.498;13.480;2023-07-29T06:50:34;10.13;;;9.15;;
14681;SDS011;7429;52.498;13.480;2023-07-29T06:53:39;9.07;;;8.18;;
14681;SDS011;7429;52.498;13.480;2023-07-29T06:56:42;9.02;;;8.32;;
14681;SDS011;7429;52.498;13.480;2023-07-29T06:59:45;8.18;;;7.57;;
14681;SDS011;7429;52.498;13.480;2023-07-29T07:02:50;8.80;;;8.05;;
14681;SDS011;7429;52.498;13.480;2023-07-29T07:05:53;8.35;;;7.68;;
14681;SDS011;7429;52.498;13.480;2023-07-29T07:08:56;8.93;;;7.97;;
14681;SDS011;7429;52.498;13.480;2023-07-29T07:11:59;7.72;;;6.97;;
14681;SDS011;7429;52.498;13.480;2023-07-29T07:15:02;7.55;;;6.97;;
14681;SDS011;7429;52.498;13.480;2023-07-29T07:18:08;7.28;;;6.57;;
14681;SDS011;7429;52.498;13.480;2023-07-29T07:21:11;7.93;;;6.70;;
14681;SDS011;7429;52.498;13.480;2023-07-29T07:24:15;6.75;;;6.25;;
14681;SDS011;7429;52.498;13.480;2023-07-29T07:27:18;9.23;;;7.30;;
14681;SDS011;7429;52.498;13.480;2023-07-29T07:30:21;8.00;;;7.20;;
14681;SDS011;7429;52.498;13.480;2023-07-29T07:33:25;9.50;;;6.55;;
14681;SDS011;7429;52.498;13.480;2023-07-29T07:36:28;6.97;;;6.32;;
14681;SDS011;7429;52.498;13.480;2023-07-29T07:39:32;7.38;;;6.78;;
14681;SDS011;7429;52.498;13.480;2023-07-29T07:42:35;7.88;;;6.50;;
14681;SDS011;7429;52.498;13.480;2023-07-29T07:45:39;6.75;;;6.25;;
14681;SDS011;7429;52.498;13.480;2023-07-29T07:48:43;9.20;;;8.50;;
14681;SDS011;7429;52.498;13.480;2023-07-29T07:51:46;8.27;;;7.68;;
14681;SDS011;7429;52.498;13.480;2023-07-29T07:54:51;9.27;;;8.48;;
14681;SDS011;7429;52.498;13.480;2023-07-29T07:57:54;11.15;;;10.25;;
14681;SDS011;7429;52.498;13.480;2023-07-29T08:01:00;11.02;;;10.32;;
14681;SDS011;7429;52.498;13.480;2023-07-29T08:04:06;10.65;;;9.82;;
14681;SDS011;7429;52.498;13.480;2023-07-29T08:07:09;11.52;;;10.63;;
14681;SDS011;7429;52.498;13.480;2023-07-29T08:10:12;9.63;;;9.02;;
14681;SDS011;7429;52.498;13.480;2023-07-29T08:13:15;6.68;;;6.18;;
14681;SDS011;7429;52.498;13.480;2023-07-29T08:16:19;6.85;;;6.35;;
14681;SDS011;7429;52.498;13.480;2023-07-29T08:19:23;7.22;;;6.63;;
14681;SDS011;7429;52.498;13.480;2023-07-29T08:22:28;6.70;;;6.20;;
14681;SDS011;7429;52.498;13.480;2023-07-29T08:25:32;10.60;;;9.90;;
14681;SDS011;7429;52.498;13.480;2023-07-29T08:28:37;7.97;;;7.47;;
14681;SDS011;7429;52.498;13.480;2023-07-29T08:31:41;7.25;;;6.65;;
14681;SDS011;7429;52.498;13.480;2023-07-29T08:34:45;11.10;;;10.30;;
14681;SDS011;7429;52.498;13.480;2023-07-29T08:37:49;7.30;;;6.72;;
14681;SDS011;7429;52.498;13.480;2023-07-29T08:40:52;9.13;;;8.43;;
14681;SDS011;7429;52.498;13.480;2023-07-29T08:44:01;6.80;;;6.40;;
14681;SDS011;7429;52.498;13.480;2023-07-29T08:47:13;9.25;;;8.68;;
14681;SDS011;7429;52.498;13.480;2023-07-29T08:50:22;8.30;;;7.80;;
14681;SDS011;7429;52.498;13.480;2023-07-29T08:53:27;6.72;;;6.18;;
14681;SDS011;7429;52.498;13.480;2023-07-29T08:56:34;5.57;;;5.13;;
14681;SDS011;7429;52.498;13.480;2023-07-29T08:59:40;8.05;;;5.80;;
14681;SDS011;7429;52.498;13.480;2023-07-29T09:02:43;5.65;;;5.13;;
14681;SDS011;7429;52.498;13.480;2023-07-29T09:05:48;6.28;;;5.88;;
14681;SDS011;7429;52.498;13.480;2023-07-29T09:08:54;6.78;;;6.28;;
14681;SDS011;7429;52.498;13.480;2023-07-29T09:11:58;5.93;;;5.50;;
14681;SDS011;7429;52.498;13.480;2023-07-29T09:15:01;6.20;;;5.70;;
14681;SDS011;7429;52.498;13.480;2023-07-29T09:18:09;6.07;;;5.55;;
14681;SDS011;7429;52.498;13.480;2023-07-29T09:21:14;5.82;;;5.22;;
14681;SDS011;7429;52.498;13.480;2023-07-29T09:24:19;7.35;;;6.72;;
14681;SDS011;7429;52.498;13.480;2023-07-29T09:27:24;5.43;;;5.13;;
14681;SDS011;7429;52.498;13.480;2023-07-29T09:30:28;5.70;;;5.38;;
14681;SDS011;7429;52.498;13.480;2023-07-29T09:33:32;5.00;;;4.70;;
14681;SDS011;7429;52.498;13.480;2023-07-29T09:36:39;5.90;;;5.45;;
14681;SDS011;7429;52.498;13.480;2023-07-29T09:39:44;5.10;;;4.70;;
14681;SDS011;7429;52.498;13.480;2023-07-29T09:42:48;4.30;;;3.80;;
14681;SDS011;7429;52.498;13.480;2023-07-29T09:45:52;5.05;;;4.72;;
14681;SDS011;7429;52.498;13.480;2023-07-29T09:48:56;4.30;;;3.97;;
14681;SDS011;7429;52.498;13.480;2023-07-29T09:52:03;4.13;;;3.92;;
14681;SDS011;7429;52.498;13.480;2023-07-29T09:55:08;4.43;;;4.22;;
14681;SDS011;7429;52.498;13.480;2023-07-29T09:58:12;5.43;;;4.15;;
14681;SDS011;7429;52.498;13.480;2023-07-29T10:01:16;4.90;;;4.45;;
14681;SDS011;7429;52.498;13.480;2023-07-29T10:04:22;4.85;;;4.55;;
14681;SDS011;7429;52.498;13.480;2023-07-29T10:07:27;5.10;;;4.80;;
14681;SDS011;7429;52.498;13.480;2023-07-29T10:10:30;4.35;;;4.05;;
14681;SDS011;7429;52.498;13.480;2023-07-29T10:13:37;4.32;;;3.95;;
14681;SDS011;7429;52.498;13.480;2023-07-29T10:16:41;4.97;;;4.25;;
14681;SDS011;7429;52.498;13.480;2023-07-29T10:19:47;4.60;;;4.22;;
14681;SDS011;7429;52.498;13.480;2023-07-29T10:22:52;5.18;;;4.85;;
14681;SDS011;7429;52.498;13.480;2023-07-29T10:26:02;6.63;;;6.22;;
14681;SDS011;7429;52.498;13.480;2023-07-29T10:29:06;7.93;;;7.43;;
14681;SDS011;7429;52.498;13.480;2023-07-29T10:32:15;6.28;;;4.78;;
14681;SDS011;7429;52.498;13.480;2023-07-29T10:35:19;6.03;;;5.63;;
14681;SDS011;7429;52.498;13.480;2023-07-29T10:38:23;4.18;;;3.90;;
14681;SDS011;7429;52.498;13.480;2023-07-29T10:44:58;3.80;;;3.60;;
14681;SDS011;7429;52.498;13.480;2023-07-29T10:48:04;4.32;;;4.13;;
14681;SDS011;7429;52.498;13.480;2023-07-29T10:51:21;4.32;;;4.13;;
14681;SDS011;7429;52.498;13.480;2023-07-29T10:54:32;3.17;;;2.90;;
14681;SDS011;7429;52.498;13.480;2023-07-29T10:57:45;3.78;;;3.47;;
14681;SDS011;7429;52.498;13.480;2023-07-29T11:00:48;2.78;;;2.60;;
14681;SDS011;7429;52.498;13.480;2023-07-29T11:04:00;3.05;;;2.85;;
14681;SDS011;7429;52.498;13.480;2023-07-29T11:07:25;3.15;;;2.95;;
14681;SDS011;7429;52.498;13.480;2023-07-29T11:10:30;5.60;;;3.20;;
14681;SDS011;7429;52.498;13.480;2023-07-29T11:13:45;3.50;;;2.70;;
14681;SDS011;7429;52.498;13.480;2023-07-29T11:16:49;3.25;;;3.05;;
14681;SDS011;7429;52.498;13.480;2023-07-29T11:19:52;3.33;;;2.70;;
14681;SDS011;7429;52.498;13.480;2023-07-29T11:22:58;3.67;;;3.47;;
14681;SDS011;7429;52.498;13.480;2023-07-29T11:26:06;6.45;;;4.75;;
14681;SDS011;7429;52.498;13.480;2023-07-29T11:29:09;10.40;;;9.35;;
14681;SDS011;7429;52.498;13.480;2023-07-29T11:32:13;12.55;;;11.32;;
14681;SDS011;7429;52.498;13.480;2023-07-29T11:35:23;4.55;;;3.92;;
14681;SDS011;7429;52.498;13.480;2023-07-29T11:38:26;3.67;;;3.38;;
14681;SDS011;7429;52.498;13.480;2023-07-29T11:41:34;4.18;;;3.88;;
14681;SDS011;7429;52.498;13.480;2023-07-29T11:44:37;4.72;;;4.25;;
14681;SDS011;7429;52.498;13.480;2023-07-29T11:47:40;4.18;;;3.88;;
14681;SDS011;7429;52.498;13.480;2023-07-29T11:50:44;3.83;;;3.63;;
14681;SDS011;7429;52.498;13.480;2023-07-29T11:53:48;4.88;;;4.57;;
14681;SDS011;7429;52.498;13.480;2023-07-29T11:56:53;5.10;;;4.70;;
14681;SDS011;7429;52.498;13.480;2023-07-29T11:59:59;3.40;;;3.20;;
14681;SDS011;7429;52.498;13.480;2023-07-29T12:03:11;3.72;;;3.42;;
14681;SDS011;7429;52.498;13.480;2023-07-29T12:06:17;3.45;;;2.80;;
14681;SDS011;7429;52.498;13.480;2023-07-29T12:09:23;3.55;;;3.30;;
14681;SDS011;7429;52.498;13.480;2023-07-29T12:12:35;4.20;;;3.90;;
14681;SDS011;7429;52.498;13.480;2023-07-29T12:15:46;7.72;;;7.32;;
14681;SDS011;7429;52.498;13.480;2023-07-29T12:18:50;8.75;;;8.15;;
14681;SDS011;7429;52.498;13.480;2023-07-29T12:21:53;5.93;;;5.70;;
14681;SDS011;7429;52.498;13.480;2023-07-29T12:24:56;5.57;;;5.38;;
14681;SDS011;7429;52.498;13.480;2023-07-29T12:28:06;4.03;;;3.70;;
14681;SDS011;7429;52.498;13.480;2023-07-29T12:31:09;3.22;;;3.10;;
14681;SDS011;7429;52.498;13.480;2023-07-29T12:34:20;7.10;;;6.35;;
14681;SDS011;7429;52.498;13.480;2023-07-29T12:37:30;5.30;;;5.00;;
14681;SDS011;7429;52.498;13.480;2023-07-29T12:40:37;4.95;;;4.55;;
14681;SDS011;7429;52.498;13.480;2023-07-29T12:43:46;5.10;;;4.40;;
14681;SDS011;7429;52.498;13.480;2023-07-29T12:46:49;4.78;;;4.47;;
14681;SDS011;7429;52.498;13.480;2023-07-29T12:49:53;10.65;;;9.95;;
14681;SDS011;7429;52.498;13.480;2023-07-29T12:52:56;6.57;;;5.30;;
14681;SDS011;7429;52.498;13.480;2023-07-29T12:56:01;5.75;;;5.25;;
14681;SDS011;7429;52.498;13.480;2023-07-29T12:59:07;8.20;;;7.68;;
14681;SDS011;7429;52.498;13.480;2023-07-29T13:02:13;9.15;;;8.35;;
14681;SDS011;7429;52.498;13.480;2023-07-29T13:05:16;5.03;;;4.70;;
14681;SDS011;7429;52.498;13.480;2023-07-29T13:08:22;7.80;;;7.10;;
14681;SDS011;7429;52.498;13.480;2023-07-29T13:11:25;7.25;;;6.65;;
14681;SDS011;7429;52.498;13.480;2023-07-29T13:14:29;7.88;;;7.47;;
14681;SDS011;7429;52.498;13.480;2023-07-29T13:17:32;5.55;;;5.22;;
14681;SDS011;7429;52.498;13.480;2023-07-29T13:20:36;6.85;;;6.45;;
14681;SDS011;7429;52.498;13.480;2023-07-29T13:23:41;6.22;;;5.72;;
14681;SDS011;7429;52.498;13.480;2023-07-29T13:26:46;5.20;;;4.80;;
14681;SDS011;7429;52.498;13.480;2023-07-29T13:29:50;6.22;;;5.80;;
14681;SDS011;7429;52.498;13.480;2023-07-29T13:32:53;7.95;;;7.45;;
14681;SDS011;7429;52.498;13.480;2023-07-29T13:35:56;7.88;;;6.93;;
14681;SDS011;7429;52.498;13.480;2023-07-29T13:39:00;6.20;;;5.68;;
14681;SDS011;7429;52.498;13.480;2023-07-29T13:42:03;6.10;;;5.70;;
14681;SDS011;7429;52.498;13.480;2023-07-29T13:45:08;6.35;;;5.95;;
14681;SDS011;7429;52.498;13.480;2023-07-29T13:48:12;7.88;;;7.43;;
14681;SDS011;7429;52.498;13.480;2023-07-29T13:51:15;6.68;;;6.32;;
14681;SDS011;7429;52.498;13.480;2023-07-29T13:54:21;6.38;;;5.85;;
14681;SDS011;7429;52.498;13.480;2023-07-29T13:57:24;9.38;;;8.77;;
14681;SDS011;7429;52.498;13.480;2023-07-29T14:00:29;4.18;;;3.88;;
14681;SDS011;7429;52.498;13.480;2023-07-29T14:03:32;4.70;;;4.40;;
14681;SDS011;7429;52.498;13.480;2023-07-29T14:06:35;4.32;;;4.07;;
14681;SDS011;7429;52.498;13.480;2023-07-29T14:09:41;5.63;;;5.13;;
14681;SDS011;7429;52.498;13.480;2023-07-29T14:12:45;3.83;;;3.63;;
14681;SDS011;7429;52.498;13.480;2023-07-29T14:15:49;4.10;;;3.63;;
14681;SDS011;7429;52.498;13.480;2023-07-29T14:18:52;3.63;;;3.20;;
14681;SDS011;7429;52.498;13.480;2023-07-29T14:21:55;4.13;;;3.92;;
14681;SDS011;7429;52.498;13.480;2023-07-29T14:24:59;2.83;;;2.72;;
14681;SDS011;7429;52.498;13.480;2023-07-29T14:28:02;3.65;;;3.35;;
14681;SDS011;7429;52.498;13.480;2023-07-29T14:31:07;4.82;;;4.53;;
14681;SDS011;7429;52.498;13.480;2023-07-29T14:34:10;3.30;;;3.10;;
14681;SDS011;7429;52.498;13.480;2023-07-29T14:37:13;3.58;;;3.35;;
14681;SDS011;7429;52.498;13.480;2023-07-29T14:40:16;3.17;;;2.97;;
14681;SDS011;7429;52.498;13.480;2023-07-29T14:43:20;2.90;;;2.70;;
14681;SDS011;7429;52.498;13.480;2023-07-29T14:46:25;4.03;;;3.63;;
14681;SDS011;7429;52.498;13.480;2023-07-29T14:49:28;3.08;;;2.88;;
14681;SDS011;7429;52.498;13.480;2023-07-29T14:52:34;3.70;;;3.40;;
14681;SDS011;7429;52.498;13.480;2023-07-29T14:55:44;3.22;;;3.03;;
14681;SDS011;7429;52.498;13.480;2023-07-29T14:58:48;3.60;;;3.40;;
14681;SDS011;7429;52.498;13.480;2023-07-29T15:01:53;4.63;;;4.40;;
14681;SDS011;7429;52.498;13.480;2023-07-29T15:04:56;3.72;;;3.42;;
14681;SDS011;7429;52.498;13.480;2023-07-29T15:07:59;3.30;;;3.10;;
14681;SDS011;7429;52.498;13.480;2023-07-29T15:11:02;3.75;;;3.45;;
14681;SDS011;7429;52.498;13.480;2023-07-29T15:14:06;7.55;;;7.15;;
14681;SDS011;7429;52.498;13.480;2023-07-29T15:17:10;3.15;;;3.00;;
14681;SDS011;7429;52.498;13.480;2023-07-29T15:20:13;3.30;;;3.10;;
14681;SDS011;7429;52.498;13.480;2023-07-29T15:23:17;3.60;;;3.30;;
14681;SDS011;7429;52.498;13.480;2023-07-29T15:26:20;4.78;;;3.63;;
14681;SDS011;7429;52.498;13.480;2023-07-29T15:29:24;4.30;;;4.00;;
14681;SDS011;7429;52.498;13.480;2023-07-29T15:32:29;4.28;;;3.95;;
14681;SDS011;7429;52.498;13.480;2023-07-29T15:35:32;4.38;;;4.07;;
14681;SDS011;7429;52.498;13.480;2023-07-29T15:38:40;4.20;;;3.90;;
14681;SDS011;7429;52.498;13.480;2023-07-29T15:41:43;3.00;;;2.85;;
14681;SDS011;7429;52.498;13.480;2023-07-29T15:44:46;3.42;;;3.22;;
14681;SDS011;7429;52.498;13.480;2023-07-29T15:47:50;6.75;;;5.78;;
14681;SDS011;7429;52.498;13.480;2023-07-29T15:50:54;7.10;;;5.90;;
14681;SDS011;7429;52.498;13.480;2023-07-29T15:53:57;4.13;;;3.40;;
14681;SDS011;7429;52.498;13.480;2023-07-29T15:57:00;7.38;;;6.57;;
14681;SDS011;7429;52.498;13.480;2023-07-29T16:00:04;6.40;;;5.90;;
14681;SDS011;7429;52.498;13.480;2023-07-29T16:03:14;7.00;;;6.50;;
14681;SDS011;7429;52.498;13.480;2023-07-29T16:06:18;4.75;;;4.45;;
14681;SDS011;7429;52.498;13.480;2023-07-29T16:09:21;4.55;;;4.25;;
14681;SDS011;7429;52.498;13.480;2023-07-29T16:12:24;4.53;;;4.13;;
14681;SDS011;7429;52.498;13.480;2023-07-29T16:15:28;6.22;;;5.80;;
14681;SDS011;7429;52.498;13.480;2023-07-29T16:18:32;8.25;;;7.75;;
14681;SDS011;7429;52.498;13.480;2023-07-29T16:21:35;7.22;;;4.03;;
14681;SDS011;7429;52.498;13.480;2023-07-29T16:24:38;4.88;;;4.47;;
14681;SDS011;7429;52.498;13.480;2023-07-29T16:27:41;5.22;;;4.82;;
14681;SDS011;7429;52.498;13.480;2023-07-29T16:30:44;5.05;;;4.63;;
14681;SDS011;7429;52.498;13.480;2023-07-29T16:33:49;5.63;;;5.22;;
14681;SDS011;7429;52.498;13.480;2023-07-29T16:36:52;6.10;;;4.57;;
14681;SDS011;7429;52.498;13.480;2023-07-29T16:39:56;5.35;;;4.85;;
14681;SDS011;7429;52.498;13.480;2023-07-29T16:43:00;6.20;;;4.95;;
14681;SDS011;7429;52.498;13.480;2023-07-29T16:46:03;6.22;;;5.72;;
14681;SDS011;7429;52.498;13.480;2023-07-29T16:49:07;6.85;;;4.97;;
14681;SDS011;7429;52.498;13.480;2023-07-29T16:52:22;9.27;;;8.65;;
14681;SDS011;7429;52.498;13.480;2023-07-29T16:55:25;7.20;;;5.53;;
14681;SDS011;7429;52.498;13.480;2023-07-29T16:58:30;6.55;;;5.97;;
14681;SDS011;7429;52.498;13.480;2023-07-29T17:01:33;6.00;;;5.50;;
14681;SDS011;7429;52.498;13.480;2023-07-29T17:04:38;7.50;;;6.80;;
14681;SDS011;7429;52.498;13.480;2023-07-29T17:07:41;7.57;;;6.25;;
14681;SDS011;7429;52.498;13.480;2023-07-29T17:10:44;6.65;;;6.15;;
14681;SDS011;7429;52.498;13.480;2023-07-29T17:13:47;10.35;;;9.48;;
14681;SDS011;7429;52.498;13.480;2023-07-29T17:16:50;6.82;;;6.13;;
14681;SDS011;7429;52.498;13.480;2023-07-29T17:19:56;5.80;;;5.18;;
14681;SDS011;7429;52.498;13.480;2023-07-29T17:22:59;6.43;;;5.88;;
14681;SDS011;7429;52.498;13.480;2023-07-29T17:26:02;6.40;;;5.90;;
14681;SDS011;7429;52.498;13.480;2023-07-29T17:29:05;8.35;;;5.13;;
14681;SDS011;7429;52.498;13.480;2023-07-29T17:32:09;6.50;;;5.90;;
14681;SDS011;7429;52.498;13.480;2023-07-29T17:35:13;5.95;;;5.45;;
14681;SDS011;7429;52.498;13.480;2023-07-29T17:38:16;6.00;;;5.40;;
14681;SDS011;7429;52.498;13.480;2023-07-29T17:41:19;10.55;;;8.02;;
14681;SDS011;7429;52.498;13.480;2023-07-29T17:44:22;9.40;;;8.45;;
14681;SDS011;7429;52.498;13.480;2023-07-29T17:47:25;9.52;;;8.60;;
14681;SDS011;7429;52.498;13.480;2023-07-29T17:50:30;11.13;;;9.05;;
14681;SDS011;7429;52.498;13.480;2023-07-29T17:53:35;7.88;;;6.22;;
14681;SDS011;7429;52.498;13.480;2023-07-29T17:56:39;6.38;;;5.78;;
14681;SDS011;7429;52.498;13.480;2023-07-29T17:59:42;6.88;;;6.38;;
14681;SDS011;7429;52.498;13.480;2023-07-29T18:02:46;7.38;;;6.78;;
14681;SDS011;7429;52.498;13.480;2023-07-29T18:05:51;7.85;;;6.35;;
14681;SDS011;7429;52.498;13.480;2023-07-29T18:08:54;6.65;;;6.07;;
14681;SDS011;7429;52.498;13.480;2023-07-29T18:11:57;8.32;;;7.72;;
14681;SDS011;7429;52.498;13.480;2023-07-29T18:15:04;7.93;;;7.32;;
14681;SDS011;7429;52.498;13.480;2023-07-29T18:18:09;9.13;;;8.32;;
14681;SDS011;7429;52.498;13.480;2023-07-29T18:21:13;9.93;;;9.05;;
14681;SDS011;7429;52.498;13.480;2023-07-29T18:24:16;6.45;;;5.95;;